createdAt,value
2022-12-20T00:01:56.508Z,29.50
2022-12-20T00:04:24.995Z,26.90
2022-12-20T00:06:53.405Z,26.02
2022-12-20T00:09:21.762Z,28.27
2022-12-20T00:11:50.083Z,28.55
2022-12-20T00:14:19.016Z,31.00
2022-12-20T00:16:47.328Z,27.05
2022-12-20T00:19:15.659Z,28.40
2022-12-20T00:21:43.980Z,29.20
2022-12-20T00:24:12.489Z,28.98
2022-12-20T00:26:40.894Z,27.45
2022-12-20T00:29:09.307Z,30.25
2022-12-20T00:31:38.177Z,24.40
2022-12-20T00:34:06.961Z,28.45
2022-12-20T00:36:35.556Z,26.95
2022-12-20T00:39:04.028Z,28.85
2022-12-20T00:41:34.869Z,24.92
2022-12-20T00:44:04.580Z,24.42
2022-12-20T00:46:33.647Z,28.88
2022-12-20T00:49:02.400Z,27.70
2022-12-20T00:51:33.495Z,26.88
2022-12-20T00:54:01.899Z,29.35
2022-12-20T00:56:30.263Z,32.58
2022-12-20T00:59:01.077Z,26.92
2022-12-20T01:01:32.555Z,28.73
2022-12-20T01:04:01.846Z,29.52
2022-12-20T01:06:31.979Z,31.95
2022-12-20T01:09:01.171Z,29.20
2022-12-20T01:11:32.379Z,28.20
2022-12-20T01:14:04.388Z,28.75
2022-12-20T01:16:58.962Z,31.25
2022-12-20T01:19:27.485Z,29.15
2022-12-20T01:21:56.116Z,31.05
2022-12-20T01:24:24.478Z,29.17
2022-12-20T01:26:52.990Z,32.42
2022-12-20T01:29:21.455Z,28.17
2022-12-20T01:31:49.862Z,27.77
2022-12-20T01:34:18.708Z,30.33
2022-12-20T01:36:47.055Z,29.45
2022-12-20T01:39:17.849Z,30.58
2022-12-20T01:41:47.386Z,31.58
2022-12-20T01:44:18.556Z,30.75
2022-12-20T01:46:49.755Z,30.30
2022-12-20T01:49:25.757Z,30.20
2022-12-20T01:52:16.787Z,27.98
2022-12-20T01:54:56.528Z,29.20
2022-12-20T01:57:52.575Z,28.75
2022-12-20T02:00:21.439Z,32.40
2022-12-20T02:02:51.178Z,30.73
2022-12-20T02:05:21.777Z,30.30
2022-12-20T02:07:52.929Z,30.73
2022-12-20T02:10:24.967Z,33.00
2022-12-20T02:13:07.561Z,28.45
2022-12-20T02:15:41.489Z,31.08
2022-12-20T02:18:49.339Z,30.42
2022-12-20T02:21:37.265Z,34.05
2022-12-20T02:24:35.214Z,32.92
2022-12-20T02:27:25.044Z,33.25
2022-12-20T02:30:09.388Z,31.30
2022-12-20T02:32:50.047Z,31.85
2022-12-20T02:35:24.630Z,30.83
2022-12-20T02:37:55.981Z,31.42
2022-12-20T02:40:28.912Z,31.10
2022-12-20T02:43:02.967Z,28.95
2022-12-20T02:45:37.722Z,29.70
2022-12-20T02:50:45.614Z,31.70
2022-12-20T02:53:15.347Z,35.38
2022-12-20T02:56:12.817Z,32.97
2022-12-20T02:59:37.467Z,31.38
2022-12-20T03:02:07.291Z,30.42
2022-12-20T03:04:40.606Z,32.83
2022-12-20T03:07:12.609Z,31.40
2022-12-20T03:09:43.928Z,30.50
2022-12-20T03:12:14.313Z,30.25
2022-12-20T03:14:42.671Z,28.95
2022-12-20T03:17:11.093Z,33.90
2022-12-20T03:19:39.513Z,33.03
2022-12-20T03:22:07.865Z,32.05
2022-12-20T03:24:36.187Z,30.67
2022-12-20T03:27:04.468Z,28.52
2022-12-20T03:29:32.842Z,33.42
2022-12-20T03:32:01.167Z,31.90
2022-12-20T03:34:29.498Z,30.08
2022-12-20T03:36:57.789Z,33.97
2022-12-20T03:39:26.113Z,31.23
2022-12-20T03:41:54.526Z,32.67
2022-12-20T03:44:23.051Z,32.05
2022-12-20T03:46:51.513Z,35.50
2022-12-20T03:49:19.824Z,32.38
2022-12-20T03:51:48.220Z,28.65
2022-12-20T03:54:16.623Z,31.40
2022-12-20T03:56:45.029Z,34.00
2022-12-20T03:59:13.330Z,33.83
2022-12-20T04:01:41.960Z,34.83
2022-12-20T04:04:14.202Z,32.15
2022-12-20T04:06:43.186Z,32.88
2022-12-20T04:09:11.829Z,31.90
2022-12-20T04:11:40.597Z,32.42
2022-12-20T04:14:08.942Z,36.38
2022-12-20T04:16:37.785Z,33.95
2022-12-20T04:19:06.370Z,34.25
2022-12-20T04:21:37.083Z,35.45
2022-12-20T04:24:06.887Z,33.42
2022-12-20T04:26:35.631Z,34.38
2022-12-20T04:29:04.100Z,31.73
2022-12-20T04:31:32.679Z,33.60
2022-12-20T04:34:01.086Z,32.92
2022-12-20T04:36:29.417Z,31.70
2022-12-20T04:38:57.729Z,34.00
2022-12-20T04:41:27.946Z,31.98
2022-12-20T04:43:59.660Z,33.45
2022-12-20T04:46:28.324Z,34.50
2022-12-20T04:48:58.981Z,36.10
2022-12-20T04:51:28.946Z,32.08
2022-12-20T04:53:58.337Z,33.40
2022-12-20T04:56:29.693Z,34.85
2022-12-20T04:59:00.098Z,31.10
2022-12-20T05:01:28.923Z,31.33
2022-12-20T05:03:57.635Z,31.00
2022-12-20T05:06:26.370Z,30.35
2022-12-20T05:08:56.125Z,31.83
2022-12-20T05:11:24.475Z,30.33
2022-12-20T05:13:52.903Z,31.92
2022-12-20T05:16:21.494Z,34.10
2022-12-20T05:18:50.005Z,31.75
2022-12-20T05:21:36.621Z,32.55
2022-12-20T05:24:23.357Z,31.30
2022-12-20T05:26:51.925Z,33.65
2022-12-20T05:29:20.369Z,33.67
2022-12-20T05:31:48.826Z,34.92
2022-12-20T05:34:17.738Z,36.58
2022-12-20T05:36:46.047Z,35.55
2022-12-20T05:39:14.615Z,36.35
2022-12-20T05:41:42.878Z,34.08
2022-12-20T05:44:11.175Z,31.10
2022-12-20T05:46:39.660Z,32.35
2022-12-20T05:49:07.988Z,34.17
2022-12-20T05:51:36.455Z,36.17
2022-12-20T05:54:04.928Z,40.97
2022-12-20T05:56:33.259Z,39.20
2022-12-20T05:59:01.675Z,38.28
2022-12-20T06:01:30.130Z,33.42
2022-12-20T06:03:58.582Z,34.65
2022-12-20T06:06:26.891Z,36.70
2022-12-20T06:08:57.188Z,33.88
2022-12-20T06:11:29.823Z,34.30
2022-12-20T06:14:00.285Z,38.40
2022-12-20T06:16:28.844Z,32.90
2022-12-20T06:18:57.761Z,35.17
2022-12-20T06:21:26.205Z,31.58
2022-12-20T06:23:54.531Z,31.35
2022-12-20T06:26:24.205Z,35.83
2022-12-20T06:28:57.972Z,32.33
2022-12-20T06:31:26.333Z,36.40
2022-12-20T06:33:54.872Z,35.08
2022-12-20T06:36:23.130Z,32.42
2022-12-20T06:38:51.792Z,34.38
2022-12-20T06:41:20.543Z,36.03
2022-12-20T06:43:49.099Z,31.65
2022-12-20T06:46:17.522Z,33.97
2022-12-20T06:48:45.892Z,33.10
2022-12-20T06:51:14.187Z,34.63
2022-12-20T06:53:42.556Z,37.05
2022-12-20T06:56:10.914Z,35.28
2022-12-20T06:58:39.196Z,33.63
2022-12-20T07:01:07.752Z,34.60
2022-12-20T07:03:36.111Z,33.42
2022-12-20T07:06:05.045Z,34.53
2022-12-20T07:08:33.678Z,34.67
2022-12-20T07:11:07.357Z,34.95
2022-12-20T07:13:35.964Z,34.08
2022-12-20T07:16:05.797Z,40.45
2022-12-20T07:18:36.293Z,40.05
2022-12-20T07:21:06.880Z,31.27
2022-12-20T07:23:35.662Z,35.55
2022-12-20T07:26:04.867Z,36.75
2022-12-20T07:28:33.263Z,34.08
2022-12-20T07:31:05.422Z,34.05
2022-12-20T07:33:34.583Z,36.78
2022-12-20T07:36:13.448Z,36.80
2022-12-20T07:38:41.795Z,37.88
2022-12-20T07:41:12.653Z,35.17
2022-12-20T07:43:41.111Z,38.33
2022-12-20T07:46:10.021Z,32.63
2022-12-20T07:48:38.699Z,36.03
2022-12-20T07:51:21.412Z,37.95
2022-12-20T07:53:54.193Z,36.15
2022-12-20T07:56:24.283Z,39.00
2022-12-20T07:58:57.256Z,41.78
2022-12-20T08:01:28.224Z,37.20
2022-12-20T08:04:06.522Z,36.08
2022-12-20T08:06:37.185Z,40.92
2022-12-20T08:09:07.587Z,38.67
2022-12-20T08:11:38.237Z,38.88
2022-12-20T08:14:09.173Z,33.00
2022-12-20T08:16:37.759Z,34.55
2022-12-20T08:19:06.059Z,38.00
2022-12-20T08:21:34.713Z,38.38
2022-12-20T08:24:03.155Z,36.45
2022-12-20T08:26:31.500Z,37.72
2022-12-20T08:28:59.852Z,36.13
2022-12-20T08:31:28.184Z,37.97
2022-12-20T08:33:57.530Z,38.40
2022-12-20T08:36:25.883Z,40.63
2022-12-20T08:38:54.339Z,33.85
2022-12-20T08:41:22.845Z,36.35
2022-12-20T08:43:51.200Z,40.78
2022-12-20T08:46:19.564Z,36.80
2022-12-20T08:48:47.850Z,37.58
2022-12-20T08:51:16.161Z,34.80
2022-12-20T08:53:44.560Z,34.50
2022-12-20T08:56:18.526Z,38.53
2022-12-20T08:58:47.341Z,39.88
2022-12-20T09:01:18.530Z,36.47
2022-12-20T09:03:47.958Z,38.42
2022-12-20T09:06:20.119Z,34.22
2022-12-20T09:08:49.724Z,35.53
2022-12-20T09:11:21.249Z,34.88
2022-12-20T09:13:51.870Z,37.97
2022-12-20T09:16:23.390Z,33.15
2022-12-20T09:19:02.477Z,36.63
2022-12-20T09:21:33.412Z,39.45
2022-12-20T09:24:02.042Z,35.25
2022-12-20T09:26:31.638Z,36.70
2022-12-20T09:29:00.295Z,34.20
2022-12-20T09:31:29.027Z,37.00
2022-12-20T09:33:59.681Z,33.55
2022-12-20T09:36:29.812Z,37.72
2022-12-20T09:38:58.860Z,39.15
2022-12-20T09:41:40.750Z,40.28
2022-12-20T09:44:31.331Z,36.03
2022-12-20T09:47:10.700Z,35.75
2022-12-20T09:49:43.974Z,34.45
2022-12-20T09:52:58.472Z,36.17
2022-12-20T09:55:49.209Z,35.75
2022-12-20T09:58:48.270Z,37.95
2022-12-20T10:01:25.007Z,37.50
2022-12-20T10:03:55.693Z,35.28
2022-12-20T10:06:42.524Z,37.10
2022-12-20T10:09:30.990Z,34.45
2022-12-20T10:12:14.222Z,35.38
2022-12-20T10:14:57.065Z,36.78
2022-12-20T10:17:35.610Z,35.17
2022-12-20T10:20:12.735Z,38.20
2022-12-20T10:23:00.622Z,36.75
2022-12-20T10:25:34.222Z,42.13
2022-12-20T10:28:07.787Z,35.42
2022-12-20T10:30:36.602Z,34.20
2022-12-20T10:33:05.093Z,37.72
2022-12-20T10:35:40.071Z,38.05
2022-12-20T10:38:16.713Z,33.67
2022-12-20T10:41:19.998Z,35.63
2022-12-20T10:43:46.526Z,37.78
2022-12-20T10:46:20.164Z,43.33
2022-12-20T10:48:51.653Z,37.83
2022-12-20T10:51:23.171Z,38.85
2022-12-20T10:53:51.485Z,38.35
2022-12-20T10:56:39.964Z,39.13
2022-12-20T10:59:18.179Z,36.67
2022-12-20T11:01:49.492Z,38.33
2022-12-20T11:04:37.127Z,37.72
2022-12-20T11:07:27.869Z,33.63
2022-12-20T11:09:58.809Z,32.50
2022-12-20T11:12:27.298Z,37.08
2022-12-20T11:15:29.575Z,37.13
2022-12-20T11:18:42.211Z,38.47
2022-12-20T11:21:28.265Z,37.70
2022-12-20T11:24:19.813Z,38.45
2022-12-20T11:27:03.116Z,39.17
2022-12-20T11:29:34.364Z,35.88
2022-12-20T11:32:23.549Z,36.17
2022-12-20T11:35:00.702Z,38.65
2022-12-20T11:37:33.528Z,34.63
2022-12-20T11:40:23.976Z,35.28
2022-12-20T11:43:04.772Z,35.40
2022-12-20T11:45:51.728Z,36.63
2022-12-20T11:48:27.967Z,35.03
2022-12-20T11:51:07.563Z,38.03
2022-12-20T11:54:00.243Z,38.13
2022-12-20T11:56:44.799Z,35.63
2022-12-20T11:59:34.977Z,37.92
2022-12-20T12:02:17.856Z,36.08
2022-12-20T12:04:57.584Z,38.35
2022-12-20T12:07:32.289Z,34.65
2022-12-20T12:10:25.560Z,34.63
2022-12-20T12:13:03.013Z,38.28
2022-12-20T12:15:57.409Z,36.30
2022-12-20T12:18:29.890Z,35.50
2022-12-20T12:21:15.322Z,34.85
2022-12-20T12:23:46.524Z,38.72
2022-12-20T12:26:26.048Z,36.80
2022-12-20T12:29:02.530Z,38.42
2022-12-20T12:31:37.037Z,34.97
2022-12-20T12:34:13.072Z,36.90
2022-12-20T12:36:55.884Z,41.45
2022-12-20T12:40:01.254Z,36.30
2022-12-20T12:43:06.839Z,36.83
2022-12-20T12:45:51.698Z,34.45
2022-12-20T12:49:07.303Z,35.72
2022-12-20T12:51:38.899Z,36.22
2022-12-20T12:54:29.420Z,36.45
2022-12-20T12:57:12.290Z,39.35
2022-12-20T12:59:40.608Z,36.58
2022-12-20T13:02:15.247Z,39.17
2022-12-20T13:05:25.521Z,39.10
2022-12-20T13:07:54.648Z,37.95
2022-12-20T13:10:30.519Z,35.55
2022-12-20T13:13:01.956Z,36.50
2022-12-20T13:15:31.484Z,35.97
2022-12-20T13:18:18.837Z,39.05
2022-12-20T13:21:20.531Z,38.90
2022-12-20T13:23:48.853Z,38.60
2022-12-20T13:26:55.905Z,35.78
2022-12-20T13:29:29.890Z,34.65
2022-12-20T13:31:58.326Z,38.20
2022-12-20T13:34:56.924Z,38.00
2022-12-20T13:37:30.701Z,38.80
2022-12-20T13:40:01.122Z,37.67
2022-12-20T13:42:38.648Z,35.45
2022-12-20T13:45:13.390Z,38.55
2022-12-20T13:47:55.700Z,38.28
2022-12-20T13:50:41.565Z,35.72
2022-12-20T13:53:20.444Z,36.65
2022-12-20T13:55:50.531Z,35.38
2022-12-20T13:58:28.089Z,37.20
2022-12-20T14:01:06.750Z,35.60
2022-12-20T14:03:41.694Z,37.58
2022-12-20T14:06:15.377Z,35.90
2022-12-20T14:08:48.367Z,36.13
2022-12-20T14:11:20.069Z,38.10
2022-12-20T14:13:56.228Z,35.55
2022-12-20T14:16:27.381Z,37.53
2022-12-20T14:18:58.530Z,37.47
2022-12-20T14:21:28.389Z,41.60
2022-12-20T14:24:00.285Z,36.55
2022-12-20T14:26:30.684Z,36.60
2022-12-20T14:29:01.619Z,40.00
2022-12-20T14:31:49.416Z,39.83
2022-12-20T14:34:29.701Z,39.47
2022-12-20T14:37:26.883Z,39.60
2022-12-20T14:40:11.816Z,37.70
2022-12-20T14:42:41.736Z,38.60
2022-12-20T14:45:19.444Z,37.10
2022-12-20T14:47:51.796Z,36.20
2022-12-20T14:50:23.497Z,39.78
2022-12-20T14:52:51.950Z,36.85
2022-12-20T14:55:32.371Z,38.35
2022-12-20T14:58:01.674Z,39.40
2022-12-20T15:00:34.052Z,38.08
2022-12-20T15:03:13.877Z,40.75
2022-12-20T15:05:51.670Z,41.53
2022-12-20T15:08:29.895Z,42.05
2022-12-20T15:11:01.990Z,42.08
2022-12-20T15:13:39.054Z,41.17
2022-12-20T15:16:16.942Z,39.15
2022-12-20T15:18:46.375Z,41.65
2022-12-20T15:21:18.013Z,38.83
2022-12-20T15:23:49.694Z,37.58
2022-12-20T15:26:20.134Z,46.05
2022-12-20T15:28:48.607Z,41.22
2022-12-20T15:31:19.774Z,41.50
2022-12-20T15:33:48.451Z,42.72
2022-12-20T15:36:27.329Z,42.45
2022-12-20T15:39:14.089Z,39.38
2022-12-20T15:41:47.195Z,43.40
2022-12-20T15:44:21.918Z,42.03
2022-12-20T15:49:24.473Z,42.35
2022-12-20T15:51:54.417Z,41.88
2022-12-20T15:54:30.657Z,44.85
2022-12-20T15:57:03.991Z,39.50
2022-12-20T16:02:25.874Z,42.03
2022-12-20T16:04:56.228Z,42.17
2022-12-20T16:07:25.203Z,40.50
2022-12-20T16:09:53.565Z,43.47
2022-12-20T16:12:35.985Z,43.55
2022-12-20T16:15:05.034Z,47.90
2022-12-20T16:17:33.397Z,43.38
2022-12-20T16:20:01.780Z,44.75
2022-12-20T16:22:30.187Z,45.40
2022-12-20T16:24:58.535Z,46.28
2022-12-20T16:27:26.917Z,42.58
2022-12-20T16:29:55.183Z,39.97
2022-12-20T16:32:23.813Z,42.38
2022-12-20T16:34:53.056Z,44.03
2022-12-20T16:37:21.785Z,45.63
2022-12-20T16:39:50.150Z,45.55
2022-12-20T16:42:23.685Z,46.80
2022-12-20T16:44:55.720Z,46.60
2022-12-20T16:47:24.087Z,48.58
2022-12-20T16:49:53.781Z,50.53
2022-12-20T16:52:23.753Z,46.75
2022-12-20T16:54:53.232Z,46.10
2022-12-20T16:57:22.367Z,45.17
2022-12-20T16:59:50.810Z,47.63
2022-12-20T17:02:33.853Z,51.90
2022-12-20T17:05:03.159Z,47.58
2022-12-20T17:07:35.297Z,53.13
2022-12-20T17:10:06.935Z,46.45
2022-12-20T17:12:35.278Z,46.55
2022-12-20T17:15:05.095Z,48.00
2022-12-20T17:17:33.510Z,47.67
2022-12-20T17:20:02.062Z,44.60
2022-12-20T17:22:31.040Z,49.00
2022-12-20T17:24:59.410Z,46.70
2022-12-20T17:27:27.809Z,53.83
2022-12-20T17:29:58.381Z,49.45
2022-12-20T17:32:26.763Z,45.38
2022-12-20T17:34:55.371Z,49.53
2022-12-20T17:37:25.575Z,50.22
2022-12-20T17:39:53.991Z,50.42
2022-12-20T17:42:27.039Z,48.60
2022-12-20T17:44:59.162Z,51.70
2022-12-20T17:47:27.489Z,49.08
2022-12-20T17:49:55.963Z,50.60
2022-12-20T17:52:24.423Z,54.63
2022-12-20T17:54:52.704Z,50.20
2022-12-20T17:57:21.085Z,52.88
2022-12-20T17:59:49.444Z,53.13
2022-12-20T18:02:25.990Z,49.08
2022-12-20T18:04:54.684Z,52.72
2022-12-20T18:07:23.034Z,48.88
2022-12-20T18:09:51.806Z,54.53
2022-12-20T18:12:20.300Z,49.55
2022-12-20T18:14:51.058Z,53.60
2022-12-20T18:17:19.488Z,51.03
2022-12-20T18:19:47.850Z,50.47
2022-12-20T18:22:16.631Z,51.72
2022-12-20T18:24:45.243Z,54.00
2022-12-20T18:27:13.884Z,55.53
2022-12-20T18:29:42.265Z,48.40
2022-12-20T18:32:10.683Z,51.33
2022-12-20T18:34:39.246Z,54.30
2022-12-20T18:37:07.681Z,46.72
2022-12-20T18:39:37.039Z,49.70
2022-12-20T18:42:05.544Z,49.70
2022-12-20T18:44:36.517Z,51.33
2022-12-20T18:47:05.037Z,49.33
2022-12-20T18:49:33.486Z,53.90
2022-12-20T18:52:02.364Z,58.05
2022-12-20T18:54:31.352Z,51.58
2022-12-20T18:56:59.949Z,55.95
2022-12-20T18:59:28.401Z,53.58
2022-12-20T19:01:56.889Z,51.35
2022-12-20T19:04:25.490Z,49.80
2022-12-20T19:06:56.786Z,51.60
2022-12-20T19:09:25.260Z,43.15
2022-12-20T19:11:57.407Z,48.40
2022-12-20T19:14:26.806Z,51.42
2022-12-20T19:16:55.825Z,46.42
2022-12-20T19:19:24.241Z,46.92
2022-12-20T19:21:52.583Z,43.67
2022-12-20T19:24:20.930Z,45.63
2022-12-20T19:26:49.843Z,47.60
2022-12-20T19:29:18.221Z,47.88
2022-12-20T19:31:46.731Z,48.10
2022-12-20T19:34:16.450Z,46.30
2022-12-20T19:36:49.253Z,48.70
2022-12-20T19:39:26.623Z,47.50
2022-12-20T19:42:22.401Z,44.53
2022-12-20T19:44:43.330Z,45.17
2022-12-20T19:47:11.613Z,37.35
2022-12-20T19:49:40.022Z,37.55
2022-12-20T19:52:08.588Z,39.33
2022-12-20T19:54:36.896Z,38.83
2022-12-20T19:57:05.509Z,42.25
2022-12-20T19:59:33.965Z,37.83
2022-12-20T20:02:02.473Z,36.78
2022-12-20T20:04:31.025Z,37.97
2022-12-20T20:06:59.759Z,38.67
2022-12-20T20:09:28.134Z,37.15
2022-12-20T20:11:56.456Z,32.45
2022-12-20T20:14:24.939Z,34.72
2022-12-20T20:16:53.899Z,35.30
2022-12-20T20:19:22.189Z,38.67
2022-12-20T20:21:50.798Z,32.08
2022-12-20T20:24:19.127Z,32.20
2022-12-20T20:26:47.464Z,33.33
2022-12-20T20:29:15.846Z,33.50
2022-12-20T20:31:44.366Z,31.70
2022-12-20T20:34:13.232Z,29.73
2022-12-20T20:36:41.593Z,34.28
2022-12-20T20:39:10.049Z,33.78
2022-12-20T20:41:38.355Z,24.02
2022-12-20T20:44:06.691Z,31.75
2022-12-20T20:46:35.069Z,30.95
2022-12-20T20:49:03.602Z,30.55
2022-12-20T20:51:31.973Z,29.70
2022-12-20T20:54:00.350Z,28.67
2022-12-20T20:56:28.777Z,27.65
2022-12-20T20:59:05.108Z,22.10
2022-12-20T21:01:35.631Z,21.13
2022-12-20T21:04:05.779Z,22.77
2022-12-20T21:06:40.984Z,20.27
2022-12-20T21:09:11.095Z,18.75
2022-12-20T21:11:39.909Z,20.35
2022-12-20T21:14:08.452Z,19.00
2022-12-20T21:16:37.670Z,20.48
2022-12-20T21:19:06.642Z,17.65
2022-12-20T21:21:35.067Z,19.73
2022-12-20T21:24:03.950Z,19.42
2022-12-20T21:26:32.612Z,19.58
2022-12-20T21:29:02.088Z,20.30
2022-12-20T21:31:31.711Z,17.92
2022-12-20T21:34:00.289Z,20.13
2022-12-20T21:36:28.931Z,22.50
2022-12-20T21:38:59.239Z,18.65
2022-12-20T21:41:29.892Z,22.05
2022-12-20T21:44:00.254Z,21.23
2022-12-20T21:46:32.720Z,20.67
2022-12-20T21:49:01.365Z,27.48
2022-12-20T21:51:31.159Z,24.70
2022-12-20T21:54:02.030Z,24.35
2022-12-20T21:56:32.833Z,22.92
2022-12-20T21:59:01.717Z,21.10
2022-12-20T22:01:30.732Z,23.55
2022-12-20T22:04:04.527Z,21.05
2022-12-20T22:06:33.554Z,24.17
2022-12-20T22:09:03.743Z,24.95
2022-12-20T22:11:32.408Z,25.25
2022-12-20T22:14:01.137Z,27.58
2022-12-20T22:16:32.630Z,26.10
2022-12-20T22:19:02.048Z,25.65
2022-12-20T22:21:32.664Z,22.23
2022-12-20T22:24:02.207Z,25.60
2022-12-20T22:26:32.979Z,27.75
2022-12-20T22:29:04.991Z,30.45
2022-12-20T22:31:33.565Z,24.00
2022-12-20T22:34:02.857Z,21.23
2022-12-20T22:36:31.318Z,22.33
2022-12-20T22:39:00.143Z,24.33
2022-12-20T22:41:35.747Z,26.92
2022-12-20T22:44:05.097Z,21.42
2022-12-20T22:46:33.779Z,24.35
2022-12-20T22:49:02.395Z,23.88
2022-12-20T22:51:34.142Z,22.75
2022-12-20T22:54:02.453Z,20.13
2022-12-20T22:56:30.843Z,23.38
2022-12-20T22:58:59.176Z,22.85
2022-12-20T23:01:28.337Z,23.90
2022-12-20T23:03:56.842Z,25.15
2022-12-20T23:06:25.262Z,21.95
2022-12-20T23:08:53.596Z,21.95
2022-12-20T23:11:43.138Z,20.67
2022-12-20T23:14:41.497Z,29.80
2022-12-20T23:17:11.354Z,33.80
2022-12-20T23:19:57.995Z,30.83
2022-12-20T23:22:38.670Z,32.70
2022-12-20T23:25:15.369Z,37.35
2022-12-20T23:27:45.870Z,32.08
2022-12-20T23:30:17.618Z,26.35
2022-12-20T23:32:46.176Z,31.38
2022-12-20T23:35:19.523Z,31.23
2022-12-20T23:37:48.793Z,33.55
2022-12-20T23:40:18.075Z,30.45
2022-12-20T23:42:46.897Z,29.23
2022-12-20T23:45:15.283Z,28.73
2022-12-20T23:47:43.580Z,26.25
2022-12-20T23:50:12.399Z,29.33
2022-12-20T23:52:41.396Z,27.95
2022-12-20T23:55:10.014Z,28.58
2022-12-20T23:57:38.340Z,25.38
